createdAt,value
2023-05-11T00:05:26.422Z,100025.22
2023-05-11T00:08:28.942Z,100021.36
2023-05-11T00:11:31.384Z,100024.64
2023-05-11T00:14:33.478Z,100027.50
2023-05-11T00:17:35.732Z,100025.08
2023-05-11T00:20:37.910Z,100023.29
2023-05-11T00:23:39.881Z,100026.60
2023-05-11T00:26:41.967Z,100023.42
2023-05-11T00:29:44.173Z,100024.11
2023-05-11T00:32:46.561Z,100022.08
2023-05-11T00:35:51.167Z,100022.41
2023-05-11T00:38:53.276Z,100019.25
2023-05-11T00:41:56.906Z,100020.64
2023-05-11T00:44:59.308Z,100021.23
2023-05-11T00:48:03.454Z,100022.29
2023-05-11T00:51:06.883Z,100022.44
2023-05-11T00:54:14.888Z,100021.42
2023-05-11T00:57:17.594Z,100024.96
2023-05-11T01:00:20.185Z,100020.80
2023-05-11T01:03:23.465Z,100026.55
2023-05-11T01:06:35.441Z,100023.44
2023-05-11T01:10:03.547Z,100022.54
2023-05-11T01:13:53.209Z,100025.80
2023-05-11T01:16:59.362Z,100027.86
2023-05-11T01:20:05.898Z,100030.05
2023-05-11T01:23:08.501Z,100028.91
2023-05-11T01:26:22.188Z,100024.20
2023-05-11T01:30:15.586Z,100031.11
2023-05-11T01:33:24.788Z,100032.56
2023-05-11T01:36:33.907Z,100032.96
2023-05-11T01:39:42.367Z,100032.85
2023-05-11T01:42:48.607Z,100034.30
2023-05-11T01:45:53.345Z,100033.27
2023-05-11T01:48:57.760Z,100030.34
2023-05-11T01:52:02.571Z,100030.66
2023-05-11T01:55:06.896Z,100030.07
2023-05-11T01:58:13.474Z,100032.16
2023-05-11T02:05:28.444Z,100026.85
2023-05-11T02:08:32.986Z,100031.07
2023-05-11T02:11:37.563Z,100031.70
2023-05-11T02:14:41.524Z,100036.80
2023-05-11T02:17:43.735Z,100036.17
2023-05-11T02:20:47.710Z,100038.24
2023-05-11T02:23:51.492Z,100046.66
2023-05-11T02:26:53.889Z,100045.06
2023-05-11T02:29:56.468Z,100042.00
2023-05-11T02:33:06.080Z,100046.91
2023-05-11T02:36:10.742Z,100042.96
2023-05-11T02:39:19.089Z,100043.79
2023-05-11T02:42:23.473Z,100044.96
2023-05-11T02:45:31.496Z,100047.34
2023-05-11T02:48:45.285Z,100043.18
2023-05-11T02:51:50.183Z,100046.38
2023-05-11T02:54:53.884Z,100048.75
2023-05-11T02:57:56.325Z,100051.48
2023-05-11T03:01:00.224Z,100051.96
2023-05-11T03:04:05.447Z,100052.84
2023-05-11T03:07:08.952Z,100054.05
2023-05-11T03:10:11.186Z,100055.98
2023-05-11T03:13:16.444Z,100059.78
2023-05-11T03:16:21.514Z,100064.90
2023-05-11T03:19:24.577Z,100061.66
2023-05-11T03:22:27.418Z,100064.35
2023-05-11T03:25:30.479Z,100066.48
2023-05-11T03:28:36.111Z,100072.04
2023-05-11T03:31:41.233Z,100070.65
2023-05-11T03:34:43.416Z,100075.48
2023-05-11T03:37:51.153Z,100078.16
2023-05-11T03:40:55.730Z,100077.92
2023-05-11T03:44:00.603Z,100077.91
2023-05-11T03:47:03.699Z,100083.43
2023-05-11T03:50:08.743Z,100087.32
2023-05-11T03:53:11.945Z,100087.53
2023-05-11T03:56:14.015Z,100085.95
2023-05-11T03:59:16.845Z,100087.95
2023-05-11T04:05:09.532Z,100086.61
2023-05-11T04:08:12.932Z,100081.95
2023-05-11T04:11:15.376Z,100087.13
2023-05-11T04:14:18.181Z,100091.09
2023-05-11T04:17:20.330Z,100090.94
2023-05-11T04:20:22.523Z,100093.02
2023-05-11T04:23:24.766Z,100097.30
2023-05-11T04:26:27.156Z,100102.80
2023-05-11T04:29:29.206Z,100102.18
2023-05-11T04:32:31.651Z,100104.63
2023-05-11T04:35:33.960Z,100110.61
2023-05-11T04:38:36.438Z,100110.08
2023-05-11T04:41:39.281Z,100108.86
2023-05-11T04:44:43.278Z,100109.20
2023-05-11T04:47:48.644Z,100106.86
2023-05-11T04:50:51.375Z,100107.67
2023-05-11T04:53:54.573Z,100108.89
2023-05-11T04:56:57.008Z,100108.11
2023-05-11T04:59:59.360Z,100109.70
2023-05-11T05:06:53.938Z,100113.81
2023-05-11T05:09:56.129Z,100115.70
2023-05-11T05:12:59.276Z,100116.70
2023-05-11T05:16:01.944Z,100119.35
2023-05-11T05:19:04.334Z,100118.19
2023-05-11T05:22:07.519Z,100118.04
2023-05-11T05:25:10.903Z,100120.69
2023-05-11T05:28:13.381Z,100120.94
2023-05-11T05:31:15.845Z,100120.89
2023-05-11T05:34:18.721Z,100119.31
2023-05-11T05:37:21.075Z,100121.34
2023-05-11T05:40:23.443Z,100127.75
2023-05-11T05:43:29.335Z,100124.14
2023-05-11T05:46:31.663Z,100120.65
2023-05-11T05:49:34.777Z,100122.67
2023-05-11T05:52:38.277Z,100125.49
2023-05-11T05:55:42.904Z,100125.55
2023-05-11T05:58:45.635Z,100124.71
2023-05-11T06:05:08.338Z,100126.52
2023-05-11T06:08:11.486Z,100128.84
2023-05-11T06:11:14.865Z,100128.02
2023-05-11T06:14:17.632Z,100126.52
2023-05-11T06:17:20.246Z,100124.73
2023-05-11T06:20:23.727Z,100125.48
2023-05-11T06:23:26.127Z,100125.14
2023-05-11T06:26:29.338Z,100124.30
2023-05-11T06:29:31.766Z,100118.63
2023-05-11T06:32:35.862Z,100119.94
2023-05-11T06:35:38.548Z,100122.96
2023-05-11T06:38:43.129Z,100123.30
2023-05-11T06:41:46.434Z,100124.89
2023-05-11T06:44:49.737Z,100123.20
2023-05-11T06:47:51.994Z,100123.55
2023-05-11T06:50:57.610Z,100121.44
2023-05-11T06:54:00.217Z,100119.98
2023-05-11T06:57:05.387Z,100120.23
2023-05-11T07:00:08.570Z,100120.05
2023-05-11T07:03:10.766Z,100123.31
2023-05-11T07:06:12.969Z,100119.73
2023-05-11T07:09:15.163Z,100117.41
2023-05-11T07:12:17.634Z,100119.42
2023-05-11T07:15:20.139Z,100117.63
2023-05-11T07:18:22.417Z,100121.59
2023-05-11T07:21:25.020Z,100122.66
2023-05-11T07:24:28.646Z,100121.04
2023-05-11T07:27:32.176Z,100124.33
2023-05-11T07:30:35.676Z,100118.20
2023-05-11T07:33:38.812Z,100116.15
2023-05-11T07:36:41.091Z,100114.29
2023-05-11T07:39:43.103Z,100117.40
2023-05-11T07:42:45.145Z,100115.51
2023-05-11T07:45:47.572Z,100113.49
2023-05-11T07:48:51.641Z,100114.40
2023-05-11T07:54:44.129Z,100105.23
2023-05-11T07:57:46.250Z,100099.25
2023-05-11T08:00:48.393Z,100103.02
2023-05-11T08:03:50.461Z,100097.05
2023-05-11T08:06:53.037Z,100096.98
2023-05-11T08:09:55.368Z,100095.14
2023-05-11T08:12:57.622Z,100095.19
2023-05-11T08:15:59.868Z,100101.95
2023-05-11T08:19:02.114Z,100099.80
2023-05-11T08:22:04.767Z,100100.53
2023-05-11T08:25:07.861Z,100095.80
2023-05-11T08:28:09.941Z,100099.16
2023-05-11T08:31:14.602Z,100098.48
2023-05-11T08:34:20.170Z,100101.53
2023-05-11T08:37:23.720Z,100097.02
2023-05-11T08:40:28.238Z,100098.89
2023-05-11T08:43:30.708Z,100094.69
2023-05-11T08:46:35.969Z,100089.94
2023-05-11T08:49:38.668Z,100097.23
2023-05-11T08:52:41.220Z,100091.59
2023-05-11T08:55:44.532Z,100090.73
2023-05-11T08:58:47.605Z,100095.52
2023-05-11T09:01:51.462Z,100095.73
2023-05-11T09:04:54.648Z,100097.37
2023-05-11T09:08:02.338Z,100092.70
2023-05-11T09:11:05.307Z,100093.90
2023-05-11T09:14:07.381Z,100094.60
2023-05-11T09:17:09.918Z,100088.60
2023-05-11T09:20:12.703Z,100088.13
2023-05-11T09:23:18.282Z,100087.95
2023-05-11T09:26:21.737Z,100081.36
2023-05-11T09:29:23.964Z,100082.94
2023-05-11T09:32:26.781Z,100084.11
2023-05-11T09:35:32.934Z,100076.63
2023-05-11T09:38:35.094Z,100073.34
2023-05-11T09:41:37.129Z,100070.34
2023-05-11T09:44:39.232Z,100071.82
2023-05-11T09:47:41.698Z,100062.81
2023-05-11T09:50:44.073Z,100055.17
2023-05-11T09:53:46.434Z,100057.66
2023-05-11T09:56:50.980Z,100053.63
2023-05-11T09:59:54.594Z,100049.58
2023-05-11T10:05:14.076Z,100045.15
2023-05-11T10:08:16.954Z,100047.57
2023-05-11T10:11:26.056Z,100043.29
2023-05-11T10:14:29.873Z,100039.23
2023-05-11T10:17:33.603Z,100037.10
2023-05-11T10:20:36.011Z,100037.35
2023-05-11T10:23:39.173Z,100036.14
2023-05-11T10:26:41.705Z,100039.88
2023-05-11T10:29:45.981Z,100028.97
2023-05-11T10:32:48.304Z,100028.34
2023-05-11T10:35:53.403Z,100027.06
2023-05-11T10:38:56.787Z,100021.56
2023-05-11T10:42:37.754Z,100020.84
2023-05-11T10:45:42.760Z,100012.60
2023-05-11T10:49:07.542Z,100015.29
2023-05-11T10:52:39.700Z,100015.45
2023-05-11T10:56:10.777Z,100013.02
2023-05-11T10:59:28.384Z,100000.69
2023-05-11T11:02:34.339Z,100003.45
2023-05-11T11:05:39.317Z,100002.48
2023-05-11T11:08:57.351Z,100008.56
2023-05-11T11:12:09.339Z,100007.48
2023-05-11T11:15:11.979Z,100004.57
2023-05-11T11:18:27.619Z,99999.33
2023-05-11T11:21:41.936Z,99995.97
2023-05-11T11:24:45.892Z,99995.48
2023-05-11T11:27:51.506Z,99993.82
2023-05-11T11:31:23.104Z,99994.41
2023-05-11T11:34:25.829Z,99992.47
2023-05-11T11:37:28.540Z,99993.58
2023-05-11T11:40:49.463Z,99991.92
2023-05-11T11:43:55.766Z,99989.63
2023-05-11T11:47:20.509Z,99984.89
2023-05-11T11:50:28.804Z,99985.17
2023-05-11T11:53:41.265Z,99981.36
2023-05-11T11:56:45.296Z,99979.42
2023-05-11T11:59:48.775Z,99971.79
2023-05-11T12:02:51.984Z,99973.05
2023-05-11T12:06:01.986Z,99973.69
2023-05-11T12:09:05.645Z,99973.11
2023-05-11T12:12:09.914Z,99973.11
2023-05-11T12:15:30.543Z,99970.14
2023-05-11T12:18:33.535Z,99971.12
2023-05-11T12:21:36.284Z,99966.88
2023-05-11T12:24:39.693Z,99967.89
2023-05-11T12:27:50.743Z,99963.65
2023-05-11T12:30:59.118Z,99962.45
2023-05-11T12:34:03.298Z,99965.45
2023-05-11T12:37:07.054Z,99963.61
2023-05-11T12:40:11.725Z,99964.98
2023-05-11T12:43:18.386Z,99968.79
2023-05-11T12:46:21.893Z,99958.13
2023-05-11T12:49:27.295Z,99959.02
2023-05-11T12:52:29.535Z,99958.74
2023-05-11T12:55:31.745Z,99954.17
2023-05-11T12:58:38.655Z,99948.86
2023-05-11T13:01:40.859Z,99940.55
2023-05-11T13:04:43.640Z,99946.20
2023-05-11T13:07:46.110Z,99944.12
2023-05-11T13:10:49.402Z,99944.39
2023-05-11T13:13:57.385Z,99946.18
2023-05-11T13:16:59.599Z,99942.38
2023-05-11T13:20:21.975Z,99935.68
2023-05-11T13:23:24.030Z,99937.27
2023-05-11T13:26:30.277Z,99935.20
2023-05-11T13:29:32.571Z,99937.52
2023-05-11T13:32:34.725Z,99940.54
2023-05-11T13:35:44.371Z,99936.67
2023-05-11T13:38:46.569Z,99934.34
2023-05-11T13:41:49.075Z,99934.79
2023-05-11T13:44:51.265Z,99938.73
2023-05-11T13:47:55.754Z,99933.30
2023-05-11T13:50:59.556Z,99930.07
2023-05-11T13:54:03.043Z,99928.26
2023-05-11T13:57:05.926Z,99925.98
2023-05-11T14:00:10.006Z,99923.56
2023-05-11T14:05:08.917Z,99921.19
2023-05-11T14:08:12.421Z,99918.08
2023-05-11T14:11:14.500Z,99921.71
2023-05-11T14:14:17.195Z,99915.60
2023-05-11T14:17:19.403Z,99914.87
2023-05-11T14:20:21.716Z,99914.23
2023-05-11T14:23:23.806Z,99904.86
2023-05-11T14:26:25.962Z,99902.42
2023-05-11T14:29:28.031Z,99907.86
2023-05-11T14:32:30.555Z,99911.52
2023-05-11T14:35:33.026Z,99910.21
2023-05-11T14:38:35.032Z,99911.12
2023-05-11T14:41:37.142Z,99912.16
2023-05-11T14:44:39.660Z,99906.39
2023-05-11T14:47:42.363Z,99902.61
2023-05-11T14:50:44.881Z,99904.55
2023-05-11T14:53:47.194Z,99897.45
2023-05-11T14:56:54.042Z,99896.71
2023-05-11T15:00:00.109Z,99895.17
2023-05-11T15:03:03.404Z,99895.06
2023-05-11T15:06:06.028Z,99895.91
2023-05-11T15:09:08.203Z,99893.38
2023-05-11T15:12:10.479Z,99892.69
2023-05-11T15:15:12.834Z,99892.02
2023-05-11T15:21:57.013Z,99886.95
2023-05-11T15:24:59.534Z,99888.42
2023-05-11T15:28:02.021Z,99889.02
2023-05-11T15:31:04.175Z,99887.95
2023-05-11T15:34:07.170Z,99887.56
2023-05-11T15:37:11.848Z,99887.41
2023-05-11T15:40:14.097Z,99884.50
2023-05-11T15:43:16.278Z,99889.54
2023-05-11T15:46:18.792Z,99892.88
2023-05-11T15:49:21.016Z,99889.25
2023-05-11T15:52:23.205Z,99883.46
2023-05-11T15:55:27.119Z,99888.09
2023-05-11T15:58:30.605Z,99892.30
2023-05-11T16:01:32.906Z,99891.25
2023-05-11T16:04:36.002Z,99890.23
2023-05-11T16:07:39.292Z,99888.64
2023-05-11T16:10:42.196Z,99889.27
2023-05-11T16:13:44.292Z,99888.89
2023-05-11T16:16:47.000Z,99893.02
2023-05-11T16:19:49.451Z,99889.79
2023-05-11T16:22:51.647Z,99894.09
2023-05-11T16:25:54.012Z,99895.23
2023-05-11T16:28:56.584Z,99896.30
2023-05-11T16:31:58.860Z,99898.02
2023-05-11T16:35:01.847Z,99896.68
2023-05-11T16:38:04.296Z,99899.30
2023-05-11T16:41:06.588Z,99899.87
2023-05-11T16:44:08.821Z,99901.05
2023-05-11T16:47:11.042Z,99901.83
2023-05-11T16:50:18.692Z,99903.33
2023-05-11T16:53:27.883Z,99906.36
2023-05-11T16:56:30.261Z,99907.10
2023-05-11T16:59:35.019Z,99907.40
2023-05-11T17:02:37.584Z,99908.08
2023-05-11T17:05:40.211Z,99908.91
2023-05-11T17:08:42.214Z,99907.45
2023-05-11T17:11:44.433Z,99907.02
2023-05-11T17:14:46.632Z,99905.60
2023-05-11T17:17:49.215Z,99908.48
2023-05-11T17:24:40.222Z,99911.25
2023-05-11T17:27:42.737Z,99918.21
2023-05-11T17:30:48.656Z,99921.69
2023-05-11T17:33:51.714Z,99925.30
2023-05-11T17:36:54.834Z,99923.80
2023-05-11T17:39:57.184Z,99927.48
2023-05-11T17:42:59.791Z,99932.95
2023-05-11T17:46:04.234Z,99934.95
2023-05-11T17:49:06.961Z,99938.34
2023-05-11T17:52:10.080Z,99941.30
2023-05-11T17:55:12.499Z,99942.50
2023-05-11T17:58:14.478Z,99947.66
2023-05-11T18:05:11.086Z,99957.27
2023-05-11T18:08:14.405Z,99959.45
2023-05-11T18:14:34.373Z,99964.80
2023-05-11T18:17:36.639Z,99964.27
2023-05-11T18:21:42.808Z,99968.55
2023-05-11T18:24:45.113Z,99974.00
2023-05-11T22:05:08.256Z,100018.20
2023-05-11T22:08:15.534Z,100019.02
2023-05-11T22:11:19.900Z,100024.89
2023-05-11T22:14:24.323Z,100025.20
2023-05-11T22:17:26.658Z,100023.98
2023-05-11T22:20:28.958Z,100025.98
2023-05-11T22:23:31.626Z,100023.74
2023-05-11T22:26:33.797Z,100024.88
2023-05-11T22:29:36.608Z,100019.23
2023-05-11T22:32:38.770Z,100018.78
2023-05-11T22:35:41.028Z,100016.88
2023-05-11T22:38:43.438Z,100015.23
2023-05-11T22:41:45.716Z,100016.95
2023-05-11T22:44:48.058Z,100017.08
2023-05-11T22:47:50.484Z,100013.06
2023-05-11T22:50:52.878Z,100014.77
2023-05-11T22:53:55.716Z,100017.48
2023-05-11T22:56:57.869Z,100015.40
2023-05-11T22:59:59.919Z,100018.27
2023-05-11T23:03:03.195Z,100021.17
2023-05-11T23:06:05.373Z,100020.63
2023-05-11T23:09:08.116Z,100022.12
2023-05-11T23:12:10.392Z,100022.66
2023-05-11T23:15:12.411Z,100020.14
2023-05-11T23:18:14.692Z,100016.35
2023-05-11T23:21:16.945Z,100012.89
2023-05-11T23:24:19.021Z,100013.80
2023-05-11T23:27:22.351Z,100013.77
2023-05-11T23:33:59.785Z,100012.84
2023-05-11T23:37:01.929Z,100011.36
2023-05-11T23:40:06.072Z,100008.58
2023-05-11T23:43:09.128Z,100008.34
2023-05-11T23:46:11.713Z,100008.86
2023-05-11T23:49:14.128Z,100009.47
2023-05-11T23:52:16.574Z,100010.58
2023-05-11T23:55:19.026Z,100010.48
2023-05-11T23:58:21.387Z,100010.42
